Time;durP1;ratioP1;P1;durP2;ratioP2;P2;SDS_P1;SDS_P2;PMS_P1;PMS_P2;Temp;Humidity;BMP_temperature;BMP_pressure;BME280_temperature;BME280_humidity;BME280_pressure;Samples;Min_cycle;Max_cycle;Signal;HPM_P1;HPM_P2
2023/11/01 00:00:18;;;;;;;8.20;2.00;;;;;;;;;;5053630;28;20487;-86
2023/11/01 00:02:43;;;;;;;6.65;1.50;;;;;;;;;;5053984;28;20460;-87
2023/11/01 00:05:09;;;;;;;6.18;1.40;;;;;;;;;;5053874;28;20044;-86
2023/11/01 00:07:34;;;;;;;7.68;2.15;;;;;;;;;;5053710;28;20353;-87
2023/11/01 00:10:02;;;;;;;3.85;1.42;;;;;;;;;;5054266;28;20060;-87
2023/11/01 00:12:27;;;;;;;8.10;1.42;;;;;;;;;;5053400;28;20028;-87
2023/11/01 00:14:53;;;;;;;7.70;1.77;;;;;;;;;;5054124;28;20303;-86
2023/11/01 00:17:18;;;;;;;12.20;3.05;;;;;;;;;;5054145;28;20017;-88
2023/11/01 00:19:43;;;;;;;8.07;1.38;;;;;;;;;;5054223;28;20477;-87
2023/11/01 00:22:09;;;;;;;8.05;1.38;;;;;;;;;;5054233;28;20021;-86
2023/11/01 00:24:34;;;;;;;8.82;1.95;;;;;;;;;;5053949;28;20033;-87
2023/11/01 00:27:00;;;;;;;8.25;1.48;;;;;;;;;;5054288;28;20052;-87
2023/11/01 00:29:25;;;;;;;4.00;1.38;;;;;;;;;;5053965;28;20029;-87
2023/11/01 00:31:50;;;;;;;9.48;1.20;;;;;;;;;;5054673;28;20032;-86
2023/11/01 00:34:16;;;;;;;5.78;1.25;;;;;;;;;;5054375;28;20464;-88
2023/11/01 00:36:41;;;;;;;8.65;1.45;;;;;;;;;;5053834;28;20082;-87
2023/11/01 00:39:07;;;;;;;2.55;1.30;;;;;;;;;;5054030;28;20032;-87
2023/11/01 00:41:32;;;;;;;3.28;0.90;;;;;;;;;;5053938;28;20469;-87
2023/11/01 00:43:57;;;;;;;4.57;1.42;;;;;;;;;;5053423;28;20055;-86
2023/11/01 00:46:23;;;;;;;4.40;1.10;;;;;;;;;;5051433;28;20104;-86
2023/11/01 00:48:48;;;;;;;6.72;1.10;;;;;;;;;;5041606;28;20071;-87
2023/11/01 00:51:13;;;;;;;10.13;1.27;;;;;;;;;;5053131;28;20025;-87
2023/11/01 00:53:39;;;;;;;9.70;1.02;;;;;;;;;;5053007;28;20017;-87
2023/11/01 00:56:08;;;;;;;4.38;1.25;;;;;;;;;;5053471;28;20048;-87
2023/11/01 00:58:34;;;;;;;3.78;1.15;;;;;;;;;;5053070;28;20021;-87
2023/11/01 01:00:59;;;;;;;4.55;1.02;;;;;;;;;;5053440;28;20392;-87
2023/11/01 01:03:24;;;;;;;3.47;0.95;;;;;;;;;;5052912;28;20031;-87
2023/11/01 01:05:49;;;;;;;3.05;1.00;;;;;;;;;;5052607;28;20017;-87
2023/11/01 01:08:15;;;;;;;2.80;0.95;;;;;;;;;;5052345;28;20017;-86
2023/11/01 01:10:41;;;;;;;4.38;1.40;;;;;;;;;;5052409;28;20039;-86
2023/11/01 01:13:06;;;;;;;6.43;1.33;;;;;;;;;;5052538;28;20040;-88
2023/11/01 01:15:31;;;;;;;5.13;1.55;;;;;;;;;;5052247;28;20028;-87
2023/11/01 01:17:57;;;;;;;9.40;1.10;;;;;;;;;;5052214;28;20473;-86
2023/11/01 01:20:23;;;;;;;5.90;1.33;;;;;;;;;;5052314;28;20413;-87
2023/11/01 01:22:48;;;;;;;3.85;0.88;;;;;;;;;;5052124;28;20025;-87
2023/11/01 01:25:13;;;;;;;5.82;1.30;;;;;;;;;;5043927;28;20025;-87
2023/11/01 01:27:41;;;;;;;2.70;0.80;;;;;;;;;;5054059;28;20104;-87
2023/11/01 01:30:06;;;;;;;2.40;0.70;;;;;;;;;;5056613;28;20025;-87
2023/11/01 01:32:33;;;;;;;5.82;1.00;;;;;;;;;;5056452;28;20453;-87
2023/11/01 01:34:58;;;;;;;2.97;1.20;;;;;;;;;;5056004;28;20044;-87
2023/11/01 01:37:23;;;;;;;4.55;1.08;;;;;;;;;;5056290;28;20087;-88
2023/11/01 01:39:49;;;;;;;3.03;1.00;;;;;;;;;;5056271;28;20399;-87
2023/11/01 01:42:14;;;;;;;4.03;0.80;;;;;;;;;;5056020;28;20013;-87
2023/11/01 01:44:39;;;;;;;8.05;1.23;;;;;;;;;;5054342;28;20021;-87
2023/11/01 01:47:05;;;;;;;4.70;1.00;;;;;;;;;;5044668;28;20021;-86
2023/11/01 01:49:30;;;;;;;1.58;0.80;;;;;;;;;;5057107;28;20089;-87
2023/11/01 01:51:56;;;;;;;4.03;0.90;;;;;;;;;;5042442;28;20402;-87
2023/11/01 01:54:24;;;;;;;2.63;1.02;;;;;;;;;;5056458;28;20033;-87
2023/11/01 01:56:49;;;;;;;4.72;0.80;;;;;;;;;;5057178;28;20388;-87
2023/11/01 01:59:15;;;;;;;5.05;0.98;;;;;;;;;;5057131;28;20021;-87
2023/11/01 02:01:41;;;;;;;1.85;0.65;;;;;;;;;;5058051;28;20017;-88
2023/11/01 02:04:07;;;;;;;3.67;0.68;;;;;;;;;;5058318;28;20044;-87
2023/11/01 02:06:33;;;;;;;2.85;0.95;;;;;;;;;;5068457;28;20024;-88
2023/11/01 02:08:58;;;;;;;3.45;0.90;;;;;;;;;;5061992;28;20017;-88
2023/11/01 02:11:23;;;;;;;5.20;1.17;;;;;;;;;;5059587;28;20049;-87
2023/11/01 02:13:48;;;;;;;6.03;0.75;;;;;;;;;;5061511;28;20078;-87
2023/11/01 02:16:14;;;;;;;3.38;0.98;;;;;;;;;;5059242;28;20100;-86
2023/11/01 02:18:39;;;;;;;4.47;1.30;;;;;;;;;;5058376;28;20025;-86
2023/11/01 02:21:05;;;;;;;4.90;0.93;;;;;;;;;;5057730;28;20092;-87
2023/11/01 02:23:34;;;;;;;1.73;0.88;;;;;;;;;;5057431;28;20464;-87
2023/11/01 02:25:59;;;;;;;3.35;0.70;;;;;;;;;;5051817;28;20017;-88
2023/11/01 02:28:25;;;;;;;3.90;0.98;;;;;;;;;;5057903;28;20033;-87
2023/11/01 02:30:50;;;;;;;2.90;1.13;;;;;;;;;;5058123;28;20053;-88
2023/11/01 02:33:17;;;;;;;2.90;1.10;;;;;;;;;;5057862;28;20425;-87
2023/11/01 02:35:43;;;;;;;4.18;0.90;;;;;;;;;;5057526;28;20029;-87
2023/11/01 02:38:09;;;;;;;2.05;0.65;;;;;;;;;;5043827;28;20017;-88
2023/11/01 02:40:35;;;;;;;3.55;0.80;;;;;;;;;;5057601;28;20067;-87
2023/11/01 02:43:00;;;;;;;2.47;0.85;;;;;;;;;;5057772;28;20017;-87
2023/11/01 02:45:26;;;;;;;2.83;0.93;;;;;;;;;;5057350;28;20013;-88
2023/11/01 02:47:51;;;;;;;2.22;0.80;;;;;;;;;;5057271;28;20025;-87
2023/11/01 02:50:19;;;;;;;3.47;0.95;;;;;;;;;;5057896;28;20025;-87
2023/11/01 02:52:45;;;;;;;4.47;1.10;;;;;;;;;;5058239;28;20028;-86
2023/11/01 02:55:11;;;;;;;3.22;1.00;;;;;;;;;;5058207;28;20385;-87
2023/11/01 02:57:37;;;;;;;5.80;1.20;;;;;;;;;;5048032;28;20052;-88
2023/11/01 03:00:06;;;;;;;3.97;1.00;;;;;;;;;;5053686;28;20024;-87
2023/11/01 03:02:35;;;;;;;5.20;1.10;;;;;;;;;;5056549;28;20025;-87
2023/11/01 03:05:00;;;;;;;5.30;1.20;;;;;;;;;;5057189;28;20373;-87
2023/11/01 03:07:28;;;;;;;6.50;1.25;;;;;;;;;;5055732;28;20024;-87
2023/11/01 03:09:54;;;;;;;5.90;1.58;;;;;;;;;;5055465;28;20052;-87
2023/11/01 03:12:19;;;;;;;7.55;1.30;;;;;;;;;;5055251;28;20025;-87
2023/11/01 03:14:44;;;;;;;4.93;1.50;;;;;;;;;;5055561;28;20397;-88
2023/11/01 03:17:10;;;;;;;6.88;1.25;;;;;;;;;;5054531;28;20027;-88
2023/11/01 03:19:36;;;;;;;4.28;1.25;;;;;;;;;;5054378;28;20013;-87
2023/11/01 03:22:02;;;;;;;8.05;1.50;;;;;;;;;;5054541;28;20524;-87
2023/11/01 03:24:27;;;;;;;6.28;1.75;;;;;;;;;;5054364;28;20052;-87
2023/11/01 03:27:00;;;;;;;10.73;1.83;;;;;;;;;;5054303;28;20116;-87
2023/11/01 03:29:25;;;;;;;6.18;1.50;;;;;;;;;;5054132;28;20048;-87
2023/11/01 03:31:51;;;;;;;7.55;1.73;;;;;;;;;;5054542;28;20024;-87
2023/11/01 03:34:19;;;;;;;7.88;1.98;;;;;;;;;;5054292;28;20021;-87
2023/11/01 03:36:44;;;;;;;6.10;1.70;;;;;;;;;;5054015;28;20041;-86
2023/11/01 03:39:10;;;;;;;10.02;2.08;;;;;;;;;;5054366;28;20024;-87
2023/11/01 03:41:42;;;;;;;9.00;1.70;;;;;;;;;;5053160;28;20064;-87
2023/11/01 03:44:07;;;;;;;5.70;1.95;;;;;;;;;;5053408;28;20021;-86
2023/11/01 03:46:33;;;;;;;9.63;1.92;;;;;;;;;;5053063;28;20036;-85
2023/11/01 03:49:06;;;;;;;11.63;2.00;;;;;;;;;;5053375;28;20108;-87
2023/11/01 03:51:31;;;;;;;12.13;1.92;;;;;;;;;;5053383;28;20021;-86
2023/11/01 03:53:57;;;;;;;8.02;2.05;;;;;;;;;;5044239;28;20034;-86
2023/11/01 03:56:22;;;;;;;13.75;2.60;;;;;;;;;;5048062;28;20104;-86
2023/11/01 03:58:48;;;;;;;8.75;1.98;;;;;;;;;;5053102;28;20021;-86
2023/11/01 04:01:15;;;;;;;8.27;1.77;;;;;;;;;;5053715;28;20448;-87
2023/11/01 04:03:41;;;;;;;10.05;2.05;;;;;;;;;;5052932;28;20020;-86
2023/11/01 04:06:06;;;;;;;9.07;2.20;;;;;;;;;;5053353;28;20023;-86
2023/11/01 04:08:32;;;;;;;9.93;2.10;;;;;;;;;;5052915;28;20036;-86
2023/11/01 04:10:57;;;;;;;5.82;1.50;;;;;;;;;;5053136;28;20013;-86
2023/11/01 04:13:22;;;;;;;6.63;1.70;;;;;;;;;;5052898;28;20025;-86
2023/11/01 04:15:48;;;;;;;12.20;2.20;;;;;;;;;;5053161;28;20032;-86
2023/11/01 04:18:13;;;;;;;8.48;1.77;;;;;;;;;;5053102;28;20384;-86
2023/11/01 04:20:38;;;;;;;10.07;2.20;;;;;;;;;;5052868;28;20582;-86
2023/11/01 04:23:03;;;;;;;7.25;1.67;;;;;;;;;;5052981;28;20017;-87
2023/11/01 04:25:29;;;;;;;4.88;1.50;;;;;;;;;;5052532;28;20017;-87
2023/11/01 04:27:55;;;;;;;7.20;1.52;;;;;;;;;;5052643;28;20017;-86
2023/11/01 04:30:20;;;;;;;6.30;1.50;;;;;;;;;;5052591;28;20066;-86
2023/11/01 04:32:45;;;;;;;12.00;1.73;;;;;;;;;;5052439;28;20036;-87
2023/11/01 04:35:11;;;;;;;9.48;2.10;;;;;;;;;;5052512;28;20044;-86
2023/11/01 04:37:39;;;;;;;12.02;1.88;;;;;;;;;;5052282;28;20493;-86
2023/11/01 04:40:05;;;;;;;14.95;2.30;;;;;;;;;;5052444;28;20017;-86
2023/11/01 04:42:31;;;;;;;11.48;1.85;;;;;;;;;;5052346;28;20106;-86
2023/11/01 04:44:56;;;;;;;8.95;1.48;;;;;;;;;;5051999;28;20469;-86
2023/11/01 04:47:21;;;;;;;15.60;1.50;;;;;;;;;;5052049;28;20468;-87
2023/11/01 04:49:47;;;;;;;13.60;1.95;;;;;;;;;;5052080;28;20055;-87
2023/11/01 04:52:12;;;;;;;10.68;1.23;;;;;;;;;;5052335;28;20120;-86
2023/11/01 04:54:37;;;;;;;12.13;1.88;;;;;;;;;;5052176;28;20020;-87
2023/11/01 04:57:02;;;;;;;12.80;1.85;;;;;;;;;;5051949;28;20381;-87
2023/11/01 04:59:28;;;;;;;11.75;1.38;;;;;;;;;;5051724;28;20366;-87
2023/11/01 05:01:53;;;;;;;12.55;2.05;;;;;;;;;;5052114;28;20021;-86
2023/11/01 05:04:19;;;;;;;7.22;1.13;;;;;;;;;;5052076;28;20013;-86
2023/11/01 05:06:44;;;;;;;10.93;1.73;;;;;;;;;;5051884;28;20036;-87
2023/11/01 05:09:11;;;;;;;11.30;1.33;;;;;;;;;;5052010;28;20024;-87
2023/11/01 05:11:36;;;;;;;9.13;2.22;;;;;;;;;;5052090;28;20437;-87
2023/11/01 05:14:01;;;;;;;7.82;1.67;;;;;;;;;;5052019;28;20033;-87
2023/11/01 05:16:26;;;;;;;5.82;1.30;;;;;;;;;;5051875;28;20017;-86
2023/11/01 05:18:53;;;;;;;8.30;1.38;;;;;;;;;;5051861;28;20021;-87
2023/11/01 05:21:18;;;;;;;7.20;1.55;;;;;;;;;;5052027;28;20113;-86
2023/11/01 05:23:45;;;;;;;8.50;1.50;;;;;;;;;;5051811;28;20124;-86
2023/11/01 05:26:14;;;;;;;9.38;1.25;;;;;;;;;;5048728;28;20021;-86
2023/11/01 05:28:40;;;;;;;9.18;1.50;;;;;;;;;;5050339;28;20443;-86
2023/11/01 05:31:06;;;;;;;7.13;1.45;;;;;;;;;;5051800;28;20044;-86
2023/11/01 05:33:31;;;;;;;10.75;1.70;;;;;;;;;;5052110;28;20505;-86
2023/11/01 05:35:56;;;;;;;8.63;1.45;;;;;;;;;;5055198;28;20032;-86
2023/11/01 05:38:25;;;;;;;9.77;1.90;;;;;;;;;;5062666;28;20052;-86
2023/11/01 05:40:50;;;;;;;8.50;1.20;;;;;;;;;;5052029;28;20174;-86
2023/11/01 05:43:16;;;;;;;7.60;1.08;;;;;;;;;;5048563;28;20500;-86
2023/11/01 05:45:41;;;;;;;13.40;1.77;;;;;;;;;;5045388;28;20028;-86
2023/11/01 05:48:07;;;;;;;11.68;2.17;;;;;;;;;;5051981;28;20126;-86
2023/11/01 05:50:33;;;;;;;13.60;1.52;;;;;;;;;;5052162;28;20472;-86
2023/11/01 05:52:58;;;;;;;10.50;1.48;;;;;;;;;;5048265;28;20117;-87
2023/11/01 05:55:24;;;;;;;7.97;1.23;;;;;;;;;;5041612;28;20017;-87
2023/11/01 05:57:52;;;;;;;9.15;1.30;;;;;;;;;;5051623;28;20028;-86
2023/11/01 06:00:18;;;;;;;4.78;1.15;;;;;;;;;;5052028;28;20017;-86
2023/11/01 06:02:43;;;;;;;17.63;1.73;;;;;;;;;;5051838;28;20016;-86
2023/11/01 06:05:08;;;;;;;8.10;1.40;;;;;;;;;;5051543;28;20024;-86
2023/11/01 06:07:34;;;;;;;5.50;1.30;;;;;;;;;;5051357;28;20032;-86
2023/11/01 06:09:59;;;;;;;8.15;1.40;;;;;;;;;;5051677;28;20063;-87
2023/11/01 06:12:24;;;;;;;8.25;1.58;;;;;;;;;;5055053;28;20084;-87
2023/11/01 06:14:49;;;;;;;12.60;1.73;;;;;;;;;;5054871;28;20035;-86
2023/11/01 06:17:15;;;;;;;4.72;1.15;;;;;;;;;;5055068;28;20098;-86
2023/11/01 06:19:40;;;;;;;9.90;1.60;;;;;;;;;;5054949;28;20353;-86
2023/11/01 06:22:05;;;;;;;9.98;1.90;;;;;;;;;;5055485;28;20024;-86
2023/11/01 06:24:32;;;;;;;8.05;1.73;;;;;;;;;;5055124;28;20025;-86
2023/11/01 06:26:58;;;;;;;9.15;1.45;;;;;;;;;;5051672;28;20427;-86
2023/11/01 06:29:23;;;;;;;2.75;1.25;;;;;;;;;;5044527;28;20021;-86
2023/11/01 06:31:48;;;;;;;8.70;1.45;;;;;;;;;;5054802;28;20024;-86
2023/11/01 06:34:14;;;;;;;13.18;1.50;;;;;;;;;;5054848;28;20112;-86
2023/11/01 06:36:40;;;;;;;10.15;2.00;;;;;;;;;;5054509;28;20546;-86
2023/11/01 06:39:05;;;;;;;8.75;1.75;;;;;;;;;;5040764;28;20022;-86
2023/11/01 06:41:30;;;;;;;9.57;1.35;;;;;;;;;;5054909;28;20024;-86
2023/11/01 06:43:56;;;;;;;11.15;1.40;;;;;;;;;;5054587;28;20024;-86
2023/11/01 06:46:22;;;;;;;11.48;1.63;;;;;;;;;;5054622;28;20059;-85
2023/11/01 06:48:47;;;;;;;8.40;1.83;;;;;;;;;;5054574;28;20028;-86
2023/11/01 06:51:14;;;;;;;11.40;1.40;;;;;;;;;;5051677;28;20116;-86
2023/11/01 06:53:39;;;;;;;9.68;1.30;;;;;;;;;;5044184;28;20020;-86
2023/11/01 06:56:05;;;;;;;9.85;1.13;;;;;;;;;;5054997;28;20020;-86
2023/11/01 06:58:30;;;;;;;17.17;1.55;;;;;;;;;;5054726;28;20020;-86
2023/11/01 07:00:55;;;;;;;8.93;1.45;;;;;;;;;;5054236;28;20112;-86
2023/11/01 07:03:20;;;;;;;5.20;1.27;;;;;;;;;;5054138;28;20078;-86
2023/11/01 07:05:46;;;;;;;11.35;1.40;;;;;;;;;;5054375;28;20028;-86
2023/11/01 07:08:11;;;;;;;12.75;1.23;;;;;;;;;;5054149;28;20111;-86
2023/11/01 07:10:36;;;;;;;9.93;1.60;;;;;;;;;;5054381;28;20497;-86
2023/11/01 07:13:03;;;;;;;14.45;2.03;;;;;;;;;;5054027;28;20031;-85
2023/11/01 07:15:28;;;;;;;7.22;1.48;;;;;;;;;;5054563;28;20100;-87
2023/11/01 07:17:53;;;;;;;6.88;1.45;;;;;;;;;;5054232;28;20029;-87
2023/11/01 07:20:18;;;;;;;11.73;1.40;;;;;;;;;;5054577;28;20441;-86
2023/11/01 07:22:44;;;;;;;6.30;1.13;;;;;;;;;;5054380;28;20105;-86
2023/11/01 07:25:11;;;;;;;7.95;1.83;;;;;;;;;;5054028;28;20025;-86
2023/11/01 07:27:37;;;;;;;12.73;1.40;;;;;;;;;;5051248;28;20028;-87
2023/11/01 07:30:03;;;;;;;6.32;0.88;;;;;;;;;;5053884;28;20448;-86
2023/11/01 07:32:28;;;;;;;10.23;1.30;;;;;;;;;;5053853;28;20021;-86
2023/11/01 07:34:53;;;;;;;10.25;0.95;;;;;;;;;;5053941;28;20025;-86
2023/11/01 07:37:18;;;;;;;12.57;1.48;;;;;;;;;;5061286;28;20021;-86
2023/11/01 07:39:44;;;;;;;4.20;0.80;;;;;;;;;;5053539;28;20109;-86
2023/11/01 07:42:09;;;;;;;2.97;1.13;;;;;;;;;;5056499;28;20029;-88
2023/11/01 07:44:34;;;;;;;8.13;1.30;;;;;;;;;;5058756;28;20039;-89
2023/11/01 07:47:00;;;;;;;4.25;0.88;;;;;;;;;;5060387;28;20025;-88
2023/11/01 07:49:25;;;;;;;5.90;1.00;;;;;;;;;;5056471;28;20074;-89
2023/11/01 07:51:51;;;;;;;8.98;1.15;;;;;;;;;;5041512;28;20033;-90
2023/11/01 07:54:16;;;;;;;9.88;1.40;;;;;;;;;;5051082;28;20045;-89
2023/11/01 07:56:41;;;;;;;9.93;1.40;;;;;;;;;;5056379;28;20033;-89
2023/11/01 07:59:06;;;;;;;7.03;1.30;;;;;;;;;;5056069;28;20017;-90
2023/11/01 08:01:32;;;;;;;6.25;1.00;;;;;;;;;;5053623;28;20036;-90
2023/11/01 08:03:57;;;;;;;5.97;1.17;;;;;;;;;;5055140;28;20167;-91
2023/11/01 08:06:22;;;;;;;9.88;1.23;;;;;;;;;;5055052;28;20272;-90
2023/11/01 08:08:50;;;;;;;5.00;0.90;;;;;;;;;;5055734;28;20040;-90
2023/11/01 08:11:15;;;;;;;8.02;1.10;;;;;;;;;;5054845;28;20025;-90
2023/11/01 08:13:41;;;;;;;4.07;0.95;;;;;;;;;;5055375;28;20055;-90
2023/11/01 08:16:06;;;;;;;1.63;0.52;;;;;;;;;;5054566;28;20075;-90
2023/11/01 08:18:31;;;;;;;6.43;1.17;;;;;;;;;;5051406;28;20092;-90
2023/11/01 08:20:58;;;;;;;6.75;1.00;;;;;;;;;;5028402;28;20061;-91
2023/11/01 08:23:23;;;;;;;7.28;0.90;;;;;;;;;;5053222;28;20035;-90
2023/11/01 08:25:50;;;;;;;10.73;1.40;;;;;;;;;;5043234;28;20516;-90
2023/11/01 08:28:15;;;;;;;5.68;0.90;;;;;;;;;;5054176;28;20041;-90
2023/11/01 08:30:40;;;;;;;4.97;0.95;;;;;;;;;;5051371;28;20208;-90
2023/11/01 08:33:05;;;;;;;2.85;0.73;;;;;;;;;;5054128;28;20033;-92
2023/11/01 08:35:31;;;;;;;6.70;0.90;;;;;;;;;;5053817;28;20795;-90
2023/11/01 08:37:56;;;;;;;11.57;1.15;;;;;;;;;;5054354;28;20021;-90
2023/11/01 08:40:22;;;;;;;7.18;1.10;;;;;;;;;;5054395;28;20033;-90
2023/11/01 08:42:47;;;;;;;12.65;1.00;;;;;;;;;;5055376;28;20013;-88
2023/11/01 08:45:13;;;;;;;6.68;0.88;;;;;;;;;;5057303;28;20017;-90
2023/11/01 08:47:39;;;;;;;15.45;0.88;;;;;;;;;;5052945;28;20021;-90
2023/11/01 08:50:06;;;;;;;2.83;0.60;;;;;;;;;;5051762;28;20020;-89
2023/11/01 08:52:32;;;;;;;4.28;0.60;;;;;;;;;;5056234;28;20111;-85
2023/11/01 08:54:58;;;;;;;7.95;0.80;;;;;;;;;;5052287;28;20060;-90
2023/11/01 08:57:23;;;;;;;7.43;0.93;;;;;;;;;;5038951;28;20032;-86
2023/11/01 08:59:53;;;;;;;7.95;1.00;;;;;;;;;;5049708;28;20016;-85
2023/11/01 09:02:18;;;;;;;5.63;0.80;;;;;;;;;;5051911;28;20020;-86
2023/11/01 09:04:46;;;;;;;5.72;0.70;;;;;;;;;;5053365;28;20158;-87
2023/11/01 09:07:12;;;;;;;3.25;0.73;;;;;;;;;;5052247;28;20120;-87
2023/11/01 09:09:37;;;;;;;0.40;0.25;;;;;;;;;;5051974;28;20032;-86
2023/11/01 09:12:02;;;;;;;8.27;1.08;;;;;;;;;;5052351;28;20357;-87
2023/11/01 09:14:28;;;;;;;2.45;0.40;;;;;;;;;;5051595;28;20028;-86
2023/11/01 09:16:53;;;;;;;7.03;1.00;;;;;;;;;;5070393;28;20045;-88
2023/11/01 09:19:18;;;;;;;5.53;1.15;;;;;;;;;;5062135;28;20017;-87
2023/11/01 09:21:44;;;;;;;4.25;1.00;;;;;;;;;;5055212;28;20329;-87
2023/11/01 09:24:09;;;;;;;7.80;0.73;;;;;;;;;;5061516;28;20039;-86
2023/11/01 09:26:34;;;;;;;6.47;1.05;;;;;;;;;;5055270;28;20022;-87
2023/11/01 09:29:02;;;;;;;1.17;0.80;;;;;;;;;;5051703;28;20013;-87
2023/11/01 09:31:27;;;;;;;6.63;1.23;;;;;;;;;;5051138;28;20404;-87
2023/11/01 09:33:53;;;;;;;8.80;0.90;;;;;;;;;;5055848;28;20036;-87
2023/11/01 09:36:18;;;;;;;2.35;0.57;;;;;;;;;;5051794;28;20017;-86
2023/11/01 09:38:43;;;;;;;5.70;0.90;;;;;;;;;;5051238;28;20032;-87
2023/11/01 09:41:09;;;;;;;3.30;1.15;;;;;;;;;;5050853;28;20021;-86
2023/11/01 09:43:38;;;;;;;8.80;1.38;;;;;;;;;;5049975;28;20025;-86
2023/11/01 09:46:06;;;;;;;1.42;0.50;;;;;;;;;;5046790;28;20348;-86
2023/11/01 09:48:32;;;;;;;11.00;1.20;;;;;;;;;;5048315;28;20034;-86
2023/11/01 09:50:57;;;;;;;9.23;1.50;;;;;;;;;;5054161;28;20095;-88
2023/11/01 09:53:23;;;;;;;3.42;1.15;;;;;;;;;;5055047;28;20498;-87
2023/11/01 09:55:48;;;;;;;10.43;1.20;;;;;;;;;;5068327;28;20044;-87
2023/11/01 09:58:16;;;;;;;8.77;1.02;;;;;;;;;;5056493;28;20017;-88
2023/11/01 10:00:45;;;;;;;11.93;1.48;;;;;;;;;;5055675;28;20507;-86
2023/11/01 10:03:11;;;;;;;10.05;1.65;;;;;;;;;;5067564;28;20019;-87
2023/11/01 10:05:36;;;;;;;3.92;1.08;;;;;;;;;;5065708;28;20017;-84
2023/11/01 10:08:01;;;;;;;3.55;0.80;;;;;;;;;;5058745;28;20029;-84
2023/11/01 10:10:27;;;;;;;4.72;1.20;;;;;;;;;;5055899;28;20021;-86
2023/11/01 10:12:52;;;;;;;3.63;1.00;;;;;;;;;;5055024;28;20365;-86
2023/11/01 10:15:19;;;;;;;5.97;0.90;;;;;;;;;;5054819;28;20035;-85
2023/11/01 10:17:44;;;;;;;3.90;1.25;;;;;;;;;;5066069;28;20029;-86
2023/11/01 10:20:36;;;;;;;5.65;1.02;;;;;;;;;;5060754;28;20024;-86
2023/11/01 10:23:01;;;;;;;3.20;0.93;;;;;;;;;;5057975;28;20036;-86
2023/11/01 10:25:27;;;;;;;3.63;0.40;;;;;;;;;;5059283;28;20529;-86
2023/11/01 10:27:52;;;;;;;6.43;1.15;;;;;;;;;;5062900;28;20048;-86
2023/11/01 10:30:17;;;;;;;5.43;0.80;;;;;;;;;;5060417;28;20102;-86
2023/11/01 10:32:56;;;;;;;6.03;1.58;;;;;;;;;;5054918;28;20094;-86
2023/11/01 10:35:21;;;;;;;3.55;0.80;;;;;;;;;;5071057;28;20146;-85
2023/11/01 10:37:46;;;;;;;9.85;1.13;;;;;;;;;;5056302;28;20103;-86
2023/11/01 10:40:12;;;;;;;2.40;0.85;;;;;;;;;;5054350;28;20029;-86
2023/11/01 10:42:38;;;;;;;4.93;1.40;;;;;;;;;;5054512;28;20021;-86
2023/11/01 10:45:04;;;;;;;2.05;0.63;;;;;;;;;;5054309;28;20013;-86
2023/11/01 10:47:29;;;;;;;3.88;0.68;;;;;;;;;;5054534;28;20025;-85
2023/11/01 10:49:56;;;;;;;6.78;0.90;;;;;;;;;;5054262;28;20021;-86
2023/11/01 10:52:21;;;;;;;2.97;0.60;;;;;;;;;;5054055;28;20123;-86
2023/11/01 10:54:49;;;;;;;2.90;0.43;;;;;;;;;;5054378;28;20041;-86
2023/11/01 10:57:14;;;;;;;7.43;1.23;;;;;;;;;;5054006;28;20139;-86
2023/11/01 10:59:46;;;;;;;3.25;0.98;;;;;;;;;;5054204;28;20017;-86
2023/11/01 11:02:21;;;;;;;5.05;1.05;;;;;;;;;;5055359;28;20021;-86
2023/11/01 11:04:52;;;;;;;10.90;0.80;;;;;;;;;;5053747;28;20021;-86
2023/11/01 11:07:28;;;;;;;8.48;1.27;;;;;;;;;;5054296;28;20017;-87
2023/11/01 11:10:12;;;;;;;1.42;0.60;;;;;;;;;;5053928;28;20047;-86
2023/11/01 11:12:37;;;;;;;3.08;0.60;;;;;;;;;;5053940;28;20021;-86
2023/11/01 11:15:04;;;;;;;3.58;0.47;;;;;;;;;;5053360;28;20078;-86
2023/11/01 11:17:30;;;;;;;3.28;1.00;;;;;;;;;;5053764;28;20035;-86
2023/11/01 11:20:16;;;;;;;5.38;1.02;;;;;;;;;;5053889;28;20067;-87
2023/11/01 11:23:02;;;;;;;1.02;0.50;;;;;;;;;;5053963;28;20101;-86
2023/11/01 11:25:37;;;;;;;4.25;0.85;;;;;;;;;;5053426;28;20014;-86
2023/11/01 11:28:24;;;;;;;8.80;0.63;;;;;;;;;;5060117;28;20039;-87
2023/11/01 11:31:15;;;;;;;3.17;0.75;;;;;;;;;;5072791;28;20033;-87
2023/11/01 11:33:52;;;;;;;4.45;0.98;;;;;;;;;;5053447;28;20024;-87
2023/11/01 11:36:22;;;;;;;10.23;1.52;;;;;;;;;;5059632;28;20111;-87
2023/11/01 11:38:49;;;;;;;6.68;0.77;;;;;;;;;;5060528;28;20017;-86
2023/11/01 11:41:20;;;;;;;3.45;0.60;;;;;;;;;;5053227;28;20082;-86
2023/11/01 11:44:04;;;;;;;8.98;0.70;;;;;;;;;;5062957;28;20020;-86
2023/11/01 11:46:33;;;;;;;2.03;0.52;;;;;;;;;;5054931;28;20028;-87
2023/11/01 11:48:59;;;;;;;1.88;0.73;;;;;;;;;;5053347;28;20116;-86
2023/11/01 11:51:24;;;;;;;5.22;0.88;;;;;;;;;;5052971;28;20044;-87
2023/11/01 11:53:50;;;;;;;4.60;1.13;;;;;;;;;;5053417;28;20074;-86
2023/11/01 11:56:21;;;;;;;2.95;0.70;;;;;;;;;;5053249;28;20486;-87
2023/11/01 11:58:47;;;;;;;3.78;0.82;;;;;;;;;;5053576;28;20047;-86
2023/11/01 12:01:25;;;;;;;1.88;0.57;;;;;;;;;;5066473;28;20017;-86
2023/11/01 12:03:51;;;;;;;8.88;0.70;;;;;;;;;;5044481;28;20384;-86
2023/11/01 12:06:16;;;;;;;1.27;0.68;;;;;;;;;;5053177;28;20028;-86
2023/11/01 12:08:42;;;;;;;3.72;0.70;;;;;;;;;;5052068;28;20039;-86
2023/11/01 12:11:09;;;;;;;2.65;0.57;;;;;;;;;;5052843;28;20016;-86
2023/11/01 12:13:41;;;;;;;4.07;0.70;;;;;;;;;;5055653;28;20021;-86
2023/11/01 12:16:06;;;;;;;;;;;;;;;;;;5061018;28;20033;-87
2023/11/01 12:18:31;;;;;;;1.73;0.55;;;;;;;;;;5051291;28;19963;-87
2023/11/01 12:20:57;;;;;;;1.63;0.57;;;;;;;;;;5052588;28;20112;-86
2023/11/01 12:23:22;;;;;;;9.57;0.80;;;;;;;;;;5060636;28;20013;-87
2023/11/01 12:25:47;;;;;;;1.48;0.50;;;;;;;;;;5052368;28;20086;-86
2023/11/01 12:28:19;;;;;;;1.85;0.50;;;;;;;;;;5052816;28;20024;-87
2023/11/01 12:30:45;;;;;;;3.35;0.55;;;;;;;;;;5070965;28;20033;-86
2023/11/01 12:33:20;;;;;;;3.63;0.30;;;;;;;;;;5062011;28;20029;-86
2023/11/01 12:35:45;;;;;;;4.35;1.02;;;;;;;;;;5055851;28;20028;-87
2023/11/01 12:38:14;;;;;;;3.65;0.50;;;;;;;;;;5052218;28;20131;-87
2023/11/01 12:40:40;;;;;;;6.32;0.70;;;;;;;;;;5052644;28;20027;-86
2023/11/01 12:43:11;;;;;;;3.67;0.50;;;;;;;;;;5052620;28;20025;-86
2023/11/01 12:45:36;;;;;;;1.98;0.38;;;;;;;;;;5052506;28;20025;-87
2023/11/01 12:48:01;;;;;;;2.63;0.63;;;;;;;;;;5052394;28;20031;-87
2023/11/01 12:50:31;;;;;;;5.47;0.77;;;;;;;;;;5052433;28;20343;-87
2023/11/01 12:52:56;;;;;;;4.05;0.60;;;;;;;;;;5052197;28;20021;-87
2023/11/01 12:55:23;;;;;;;2.53;0.75;;;;;;;;;;5052426;28;20047;-87
2023/11/01 12:57:49;;;;;;;2.33;0.95;;;;;;;;;;5051972;28;20069;-86
2023/11/01 13:00:23;;;;;;;5.20;0.82;;;;;;;;;;5052189;28;20024;-86
2023/11/01 13:02:48;;;;;;;1.92;0.77;;;;;;;;;;5052147;28;20016;-87
2023/11/01 13:05:15;;;;;;;1.25;0.70;;;;;;;;;;5052283;28;20102;-87
2023/11/01 13:07:40;;;;;;;4.68;0.70;;;;;;;;;;5052239;28;20118;-87
2023/11/01 13:10:06;;;;;;;2.13;0.45;;;;;;;;;;5051968;28;20469;-87
2023/11/01 13:12:32;;;;;;;5.57;0.82;;;;;;;;;;5052463;28;20101;-86
2023/11/01 13:14:57;;;;;;;3.08;0.50;;;;;;;;;;5051973;28;20039;-86
2023/11/01 13:17:23;;;;;;;5.22;0.73;;;;;;;;;;5052384;28;20384;-87
2023/11/01 13:19:48;;;;;;;0.30;0.30;;;;;;;;;;5053488;28;20025;-86
2023/11/01 13:22:14;;;;;;;3.33;0.57;;;;;;;;;;5058674;28;20107;-87
2023/11/01 13:24:39;;;;;;;4.05;1.02;;;;;;;;;;5059034;28;20051;-86
2023/11/01 13:27:10;;;;;;;6.05;1.10;;;;;;;;;;5058618;28;20013;-86
2023/11/01 13:29:37;;;;;;;5.35;1.15;;;;;;;;;;5058510;28;20464;-86
2023/11/01 13:32:02;;;;;;;7.10;0.85;;;;;;;;;;5058448;28;20029;-86
2023/11/01 13:34:27;;;;;;;1.38;0.68;;;;;;;;;;5058578;28;20107;-85
2023/11/01 13:36:53;;;;;;;6.43;0.65;;;;;;;;;;5058326;28;20465;-86
2023/11/01 13:39:18;;;;;;;10.88;1.15;;;;;;;;;;5058295;28;20025;-86
2023/11/01 13:41:43;;;;;;;2.10;0.90;;;;;;;;;;5058208;28;20032;-86
2023/11/01 13:44:09;;;;;;;1.27;0.68;;;;;;;;;;5044307;28;20085;-85
2023/11/01 13:46:36;;;;;;;4.15;0.93;;;;;;;;;;5058821;28;20533;-86
2023/11/01 13:49:03;;;;;;;3.80;0.80;;;;;;;;;;5058490;28;20025;-85
2023/11/01 13:51:28;;;;;;;6.38;0.88;;;;;;;;;;5058194;28;20024;-86
2023/11/01 13:53:53;;;;;;;6.20;0.95;;;;;;;;;;5058084;28;20024;-86
2023/11/01 13:56:19;;;;;;;4.93;0.90;;;;;;;;;;5044474;28;20064;-86
2023/11/01 13:58:50;;;;;;;4.68;0.85;;;;;;;;;;5058434;28;20025;-85
2023/11/01 14:01:15;;;;;;;2.80;0.70;;;;;;;;;;5058159;28;20103;-86
2023/11/01 14:03:42;;;;;;;5.65;0.80;;;;;;;;;;5058184;28;20075;-85
2023/11/01 14:06:08;;;;;;;4.95;1.50;;;;;;;;;;5058253;28;20392;-86
2023/11/01 14:08:33;;;;;;;2.72;0.73;;;;;;;;;;5058226;28;20028;-85
2023/11/01 14:10:58;;;;;;;7.82;1.42;;;;;;;;;;5057989;28;20115;-86
2023/11/01 14:13:24;;;;;;;2.85;0.70;;;;;;;;;;5058040;28;20028;-86
2023/11/01 14:15:50;;;;;;;5.90;0.80;;;;;;;;;;5058667;28;20048;-85
2023/11/01 14:18:19;;;;;;;4.43;1.00;;;;;;;;;;5057767;28;20017;-86
2023/11/01 14:20:46;;;;;;;3.63;0.60;;;;;;;;;;5058373;28;20025;-86
2023/11/01 14:23:11;;;;;;;1.17;0.63;;;;;;;;;;5057906;28;20108;-84
2023/11/01 14:25:36;;;;;;;3.88;1.02;;;;;;;;;;5057951;28;20369;-85
2023/11/01 14:28:01;;;;;;;9.05;0.88;;;;;;;;;;5057984;28;20049;-85
2023/11/01 14:30:26;;;;;;;2.83;0.65;;;;;;;;;;5057636;28;20017;-86
2023/11/01 14:32:52;;;;;;;4.93;0.77;;;;;;;;;;5054129;28;20032;-86
2023/11/01 14:35:19;;;;;;;5.90;0.88;;;;;;;;;;5054821;28;20052;-86